sensor_id;sensor_type;location;lat;lon;timestamp;temperature;humidity
74178;DHT22;62540;48.456;-4.456;2022-09-24T00:01:55;16.55;70.78
74178;DHT22;62540;48.456;-4.456;2022-09-24T00:04:24;16.55;70.83
74178;DHT22;62540;48.456;-4.456;2022-09-24T00:06:49;16.56;70.46
74178;DHT22;62540;48.456;-4.456;2022-09-24T00:09:17;16.59;70.38
74178;DHT22;62540;48.456;-4.456;2022-09-24T00:11:43;16.62;70.75
74178;DHT22;62540;48.456;-4.456;2022-09-24T00:14:09;16.63;70.34
74178;DHT22;62540;48.456;-4.456;2022-09-24T00:16:35;16.62;70.62
74178;DHT22;62540;48.456;-4.456;2022-09-24T00:19:02;16.62;70.36
74178;DHT22;62540;48.456;-4.456;2022-09-24T00:21:30;16.66;70.43
74178;DHT22;62540;48.456;-4.456;2022-09-24T00:23:58;16.65;70.64
74178;DHT22;62540;48.456;-4.456;2022-09-24T00:26:24;16.59;70.60
74178;DHT22;62540;48.456;-4.456;2022-09-24T00:29:10;16.63;70.58
74178;DHT22;62540;48.456;-4.456;2022-09-24T00:31:36;16.58;70.52
74178;DHT22;62540;48.456;-4.456;2022-09-24T00:34:02;16.63;71.24
74178;DHT22;62540;48.456;-4.456;2022-09-24T00:36:27;16.59;70.67
74178;DHT22;62540;48.456;-4.456;2022-09-24T00:38:55;16.62;70.43
74178;DHT22;62540;48.456;-4.456;2022-09-24T00:41:24;16.62;70.65
74178;DHT22;62540;48.456;-4.456;2022-09-24T00:43:50;16.63;70.58
74178;DHT22;62540;48.456;-4.456;2022-09-24T00:46:24;16.55;71.20
74178;DHT22;62540;48.456;-4.456;2022-09-24T00:48:55;16.58;70.81
74178;DHT22;62540;48.456;-4.456;2022-09-24T00:51:24;16.55;71.32
74178;DHT22;62540;48.456;-4.456;2022-09-24T00:53:54;16.48;71.78
74178;DHT22;62540;48.456;-4.456;2022-09-24T00:56:20;16.45;71.47
74178;DHT22;62540;48.456;-4.456;2022-09-24T00:58:50;16.42;71.49
74178;DHT22;62540;48.456;-4.456;2022-09-24T01:01:21;16.38;71.81
74178;DHT22;62540;48.456;-4.456;2022-09-24T01:03:48;16.33;71.92
74178;DHT22;62540;48.456;-4.456;2022-09-24T01:06:14;16.36;71.47
74178;DHT22;62540;48.456;-4.456;2022-09-24T01:08:40;16.36;71.56
74178;DHT22;62540;48.456;-4.456;2022-09-24T01:11:36;16.36;71.64
74178;DHT22;62540;48.456;-4.456;2022-09-24T01:31:23;16.31;71.74
74178;DHT22;62540;48.456;-4.456;2022-09-24T01:33:52;16.26;73.21
74178;DHT22;62540;48.456;-4.456;2022-09-24T01:36:20;16.31;72.26
74178;DHT22;62540;48.456;-4.456;2022-09-24T01:38:47;16.32;72.34
74178;DHT22;62540;48.456;-4.456;2022-09-24T01:41:16;16.36;72.28
74178;DHT22;62540;48.456;-4.456;2022-09-24T01:43:42;16.36;72.53
74178;DHT22;62540;48.456;-4.456;2022-09-24T01:46:10;16.42;72.10
74178;DHT22;62540;48.456;-4.456;2022-09-24T01:48:38;16.42;72.05
74178;DHT22;62540;48.456;-4.456;2022-09-24T01:52:11;16.45;71.92
74178;DHT22;62540;48.456;-4.456;2022-09-24T01:54:21;16.42;72.19
74178;DHT22;62540;48.456;-4.456;2022-09-24T01:57:26;16.42;72.20
74178;DHT22;62540;48.456;-4.456;2022-09-24T02:00:12;16.47;71.81
74178;DHT22;62540;48.456;-4.456;2022-09-24T02:02:44;16.49;72.15
74178;DHT22;62540;48.456;-4.456;2022-09-24T02:13:18;16.51;71.70
74178;DHT22;62540;48.456;-4.456;2022-09-24T02:15:48;16.52;71.90
74178;DHT22;62540;48.456;-4.456;2022-09-24T02:18:18;16.52;71.51
74178;DHT22;62540;48.456;-4.456;2022-09-24T02:20:46;16.49;71.51
74178;DHT22;62540;48.456;-4.456;2022-09-24T02:23:14;16.53;71.25
74178;DHT22;62540;48.456;-4.456;2022-09-24T02:25:52;16.52;71.14
74178;DHT22;62540;48.456;-4.456;2022-09-24T02:28:19;16.51;71.22
74178;DHT22;62540;48.456;-4.456;2022-09-24T02:30:50;16.49;71.00
74178;DHT22;62540;48.456;-4.456;2022-09-24T02:33:19;16.44;71.15
74178;DHT22;62540;48.456;-4.456;2022-09-24T02:36:03;16.45;70.91
74178;DHT22;62540;48.456;-4.456;2022-09-24T02:38:29;16.45;70.81
74178;DHT22;62540;48.456;-4.456;2022-09-24T02:40:55;16.44;70.68
74178;DHT22;62540;48.456;-4.456;2022-09-24T02:43:21;16.40;70.82
74178;DHT22;62540;48.456;-4.456;2022-09-24T02:45:46;16.40;70.88
74178;DHT22;62540;48.456;-4.456;2022-09-24T02:48:11;16.35;70.62
74178;DHT22;62540;48.456;-4.456;2022-09-24T02:50:37;16.31;70.94
74178;DHT22;62540;48.456;-4.456;2022-09-24T02:53:02;16.32;71.08
74178;DHT22;62540;48.456;-4.456;2022-09-24T02:55:28;16.28;71.06
74178;DHT22;62540;48.456;-4.456;2022-09-24T02:57:53;16.22;70.84
74178;DHT22;62540;48.456;-4.456;2022-09-24T03:00:18;16.22;71.06
74178;DHT22;62540;48.456;-4.456;2022-09-24T03:02:45;16.22;70.91
74178;DHT22;62540;48.456;-4.456;2022-09-24T03:05:12;16.25;70.69
74178;DHT22;62540;48.456;-4.456;2022-09-24T03:07:38;16.26;70.52
74178;DHT22;62540;48.456;-4.456;2022-09-24T03:10:04;16.22;70.74
74178;DHT22;62540;48.456;-4.456;2022-09-24T03:12:29;16.22;70.65
74178;DHT22;62540;48.456;-4.456;2022-09-24T03:14:54;16.18;70.82
74178;DHT22;62540;48.456;-4.456;2022-09-24T03:17:20;16.15;70.85
74178;DHT22;62540;48.456;-4.456;2022-09-24T03:19:45;16.15;70.62
74178;DHT22;62540;48.456;-4.456;2022-09-24T03:22:11;16.15;70.41
74178;DHT22;62540;48.456;-4.456;2022-09-24T03:24:36;16.15;70.45
74178;DHT22;62540;48.456;-4.456;2022-09-24T03:27:01;16.15;70.48
74178;DHT22;62540;48.456;-4.456;2022-09-24T03:29:27;16.17;70.47
74178;DHT22;62540;48.456;-4.456;2022-09-24T03:32:10;16.12;70.67
74178;DHT22;62540;48.456;-4.456;2022-09-24T03:34:36;16.12;70.56
74178;DHT22;62540;48.456;-4.456;2022-09-24T03:37:01;16.12;70.56
74178;DHT22;62540;48.456;-4.456;2022-09-24T03:39:26;16.14;70.66
74178;DHT22;62540;48.456;-4.456;2022-09-24T03:41:52;16.11;70.58
74178;DHT22;62540;48.456;-4.456;2022-09-24T03:44:17;16.08;70.80
74178;DHT22;62540;48.456;-4.456;2022-09-24T03:46:42;16.08;70.66
74178;DHT22;62540;48.456;-4.456;2022-09-24T03:49:08;16.01;71.05
74178;DHT22;62540;48.456;-4.456;2022-09-24T03:51:33;16.00;70.87
74178;DHT22;62540;48.456;-4.456;2022-09-24T03:53:59;15.98;71.08
74178;DHT22;62540;48.456;-4.456;2022-09-24T03:56:24;15.94;70.91
74178;DHT22;62540;48.456;-4.456;2022-09-24T03:58:49;15.89;71.04
74178;DHT22;62540;48.456;-4.456;2022-09-24T04:01:15;15.87;71.13
74178;DHT22;62540;48.456;-4.456;2022-09-24T04:03:45;15.86;71.17
74178;DHT22;62540;48.456;-4.456;2022-09-24T04:06:11;15.83;71.64
74178;DHT22;62540;48.456;-4.456;2022-09-24T04:08:37;15.79;71.53
74178;DHT22;62540;48.456;-4.456;2022-09-24T04:11:02;15.80;71.21
74178;DHT22;62540;48.456;-4.456;2022-09-24T04:13:29;15.77;71.36
74178;DHT22;62540;48.456;-4.456;2022-09-24T04:15:54;15.76;71.46
74178;DHT22;62540;48.456;-4.456;2022-09-24T04:18:20;15.73;71.40
74178;DHT22;62540;48.456;-4.456;2022-09-24T04:20:45;15.71;71.49
74178;DHT22;62540;48.456;-4.456;2022-09-24T04:23:11;15.70;71.23
74178;DHT22;62540;48.456;-4.456;2022-09-24T04:25:37;15.70;71.18
74178;DHT22;62540;48.456;-4.456;2022-09-24T04:28:06;15.69;71.84
74178;DHT22;62540;48.456;-4.456;2022-09-24T04:30:32;15.62;71.62
74178;DHT22;62540;48.456;-4.456;2022-09-24T04:32:59;15.59;71.51
74178;DHT22;62540;48.456;-4.456;2022-09-24T04:35:26;15.53;71.64
74178;DHT22;62540;48.456;-4.456;2022-09-24T04:37:52;15.53;71.40
74178;DHT22;62540;48.456;-4.456;2022-09-24T04:40:17;15.52;71.72
74178;DHT22;62540;48.456;-4.456;2022-09-24T04:42:44;15.50;71.76
74178;DHT22;62540;48.456;-4.456;2022-09-24T04:45:11;15.47;71.57
74178;DHT22;62540;48.456;-4.456;2022-09-24T04:47:38;15.47;71.44
74178;DHT22;62540;48.456;-4.456;2022-09-24T04:50:06;15.50;71.22
74178;DHT22;62540;48.456;-4.456;2022-09-24T04:52:32;15.52;71.12
74178;DHT22;62540;48.456;-4.456;2022-09-24T04:54:59;15.52;70.83
74178;DHT22;62540;48.456;-4.456;2022-09-24T04:57:26;15.54;70.80
74178;DHT22;62540;48.456;-4.456;2022-09-24T04:59:52;15.53;70.82
74178;DHT22;62540;48.456;-4.456;2022-09-24T05:02:17;15.54;70.78
74178;DHT22;62540;48.456;-4.456;2022-09-24T05:04:43;15.53;71.30
74178;DHT22;62540;48.456;-4.456;2022-09-24T05:07:09;15.52;70.86
74178;DHT22;62540;48.456;-4.456;2022-09-24T05:09:34;15.49;70.84
74178;DHT22;62540;48.456;-4.456;2022-09-24T05:12:01;15.46;70.79
74178;DHT22;62540;48.456;-4.456;2022-09-24T05:14:26;15.46;70.69
74178;DHT22;62540;48.456;-4.456;2022-09-24T05:16:52;15.46;70.57
74178;DHT22;62540;48.456;-4.456;2022-09-24T05:19:18;15.43;70.67
74178;DHT22;62540;48.456;-4.456;2022-09-24T05:21:43;15.43;70.63
74178;DHT22;62540;48.456;-4.456;2022-09-24T05:24:08;15.42;70.44
74178;DHT22;62540;48.456;-4.456;2022-09-24T05:26:34;15.43;70.28
74178;DHT22;62540;48.456;-4.456;2022-09-24T05:29:18;15.43;70.10
74178;DHT22;62540;48.456;-4.456;2022-09-24T05:31:43;15.40;69.92
74178;DHT22;62540;48.456;-4.456;2022-09-24T05:34:09;15.39;69.85
74178;DHT22;62540;48.456;-4.456;2022-09-24T05:36:35;15.40;69.84
74178;DHT22;62540;48.456;-4.456;2022-09-24T05:39:00;15.36;69.63
74178;DHT22;62540;48.456;-4.456;2022-09-24T05:41:26;15.36;69.76
74178;DHT22;62540;48.456;-4.456;2022-09-24T05:43:51;15.35;69.79
74178;DHT22;62540;48.456;-4.456;2022-09-24T05:46:17;15.36;69.82
74178;DHT22;62540;48.456;-4.456;2022-09-24T05:48:42;15.38;69.76
74178;DHT22;62540;48.456;-4.456;2022-09-24T05:51:08;15.40;69.59
74178;DHT22;62540;48.456;-4.456;2022-09-24T05:53:33;15.43;69.80
74178;DHT22;62540;48.456;-4.456;2022-09-24T05:55:59;15.46;69.65
74178;DHT22;62540;48.456;-4.456;2022-09-24T05:58:25;15.46;70.08
74178;DHT22;62540;48.456;-4.456;2022-09-24T06:00:50;15.46;70.06
74178;DHT22;62540;48.456;-4.456;2022-09-24T06:03:18;15.45;70.26
74178;DHT22;62540;48.456;-4.456;2022-09-24T06:05:48;15.46;70.83
74178;DHT22;62540;48.456;-4.456;2022-09-24T06:08:18;15.43;70.90
74178;DHT22;62540;48.456;-4.456;2022-09-24T06:10:45;15.49;70.89
74178;DHT22;62540;48.456;-4.456;2022-09-24T06:13:12;15.52;70.78
74178;DHT22;62540;48.456;-4.456;2022-09-24T06:15:41;15.56;70.70
74178;DHT22;62540;48.456;-4.456;2022-09-24T06:18:07;15.59;70.38
74178;DHT22;62540;48.456;-4.456;2022-09-24T06:20:33;15.60;70.25
74178;DHT22;62540;48.456;-4.456;2022-09-24T06:22:58;15.60;69.95
74178;DHT22;62540;48.456;-4.456;2022-09-24T06:25:25;15.62;70.29
74178;DHT22;62540;48.456;-4.456;2022-09-24T06:27:55;15.63;70.05
74178;DHT22;62540;48.456;-4.456;2022-09-24T06:30:28;15.64;69.81
74178;DHT22;62540;48.456;-4.456;2022-09-24T06:32:54;15.64;69.90
74178;DHT22;62540;48.456;-4.456;2022-09-24T06:35:20;15.67;70.01
74178;DHT22;62540;48.456;-4.456;2022-09-24T06:37:46;15.69;70.16
74178;DHT22;62540;48.456;-4.456;2022-09-24T06:40:13;15.71;70.57
74178;DHT22;62540;48.456;-4.456;2022-09-24T06:42:39;15.71;71.28
74178;DHT22;62540;48.456;-4.456;2022-09-24T06:45:05;15.77;71.49
74178;DHT22;62540;48.456;-4.456;2022-09-24T06:47:30;15.83;71.40
74178;DHT22;62540;48.456;-4.456;2022-09-24T06:49:55;15.91;71.35
74178;DHT22;62540;48.456;-4.456;2022-09-24T06:52:21;16.00;71.29
74178;DHT22;62540;48.456;-4.456;2022-09-24T06:54:47;16.00;71.29
74178;DHT22;62540;48.456;-4.456;2022-09-24T06:57:13;16.01;70.90
74178;DHT22;62540;48.456;-4.456;2022-09-24T06:59:39;16.12;71.04
74178;DHT22;62540;48.456;-4.456;2022-09-24T07:02:04;16.15;71.31
74178;DHT22;62540;48.456;-4.456;2022-09-24T07:04:30;16.25;71.43
74178;DHT22;62540;48.456;-4.456;2022-09-24T07:06:55;16.33;71.10
74178;DHT22;62540;48.456;-4.456;2022-09-24T07:09:39;16.44;70.53
74178;DHT22;62540;48.456;-4.456;2022-09-24T07:12:05;16.47;70.47
74178;DHT22;62540;48.456;-4.456;2022-09-24T07:14:31;16.52;70.39
74178;DHT22;62540;48.456;-4.456;2022-09-24T07:16:56;16.76;70.11
74178;DHT22;62540;48.456;-4.456;2022-09-24T07:19:21;16.83;69.67
74178;DHT22;62540;48.456;-4.456;2022-09-24T07:21:47;17.16;69.53
74178;DHT22;62540;48.456;-4.456;2022-09-24T07:24:12;17.30;68.82
74178;DHT22;62540;48.456;-4.456;2022-09-24T07:26:37;17.54;68.53
74178;DHT22;62540;48.456;-4.456;2022-09-24T07:29:03;17.61;68.46
74178;DHT22;62540;48.456;-4.456;2022-09-24T07:31:28;17.59;68.38
74178;DHT22;62540;48.456;-4.456;2022-09-24T07:33:54;17.98;67.84
74178;DHT22;62540;48.456;-4.456;2022-09-24T07:36:19;18.02;67.59
74178;DHT22;62540;48.456;-4.456;2022-09-24T07:38:44;18.00;67.60
74178;DHT22;62540;48.456;-4.456;2022-09-24T07:41:10;18.43;67.21
74178;DHT22;62540;48.456;-4.456;2022-09-24T07:43:36;18.92;66.18
74178;DHT22;62540;48.456;-4.456;2022-09-24T07:46:01;19.46;65.03
74178;DHT22;62540;48.456;-4.456;2022-09-24T07:48:26;19.88;64.22
74178;DHT22;62540;48.456;-4.456;2022-09-24T07:50:52;20.22;63.44
74178;DHT22;62540;48.456;-4.456;2022-09-24T07:53:17;20.42;62.66
74178;DHT22;62540;48.456;-4.456;2022-09-24T07:55:42;20.51;61.84
74178;DHT22;62540;48.456;-4.456;2022-09-24T07:58:11;20.60;62.25
74178;DHT22;62540;48.456;-4.456;2022-09-24T08:00:37;20.68;62.36
74178;DHT22;62540;48.456;-4.456;2022-09-24T08:03:03;20.48;61.74
74178;DHT22;62540;48.456;-4.456;2022-09-24T08:05:29;20.11;62.84
74178;DHT22;62540;48.456;-4.456;2022-09-24T08:07:56;19.90;62.95
74178;DHT22;62540;48.456;-4.456;2022-09-24T08:10:22;19.84;63.14
74178;DHT22;62540;48.456;-4.456;2022-09-24T08:12:48;19.87;63.32
74178;DHT22;62540;48.456;-4.456;2022-09-24T08:15:14;19.88;62.83
74178;DHT22;62540;48.456;-4.456;2022-09-24T08:17:40;19.81;63.30
74178;DHT22;62540;48.456;-4.456;2022-09-24T08:20:06;19.53;63.52
74178;DHT22;62540;48.456;-4.456;2022-09-24T08:22:32;19.26;64.19
74178;DHT22;62540;48.456;-4.456;2022-09-24T08:24:58;19.36;64.34
74178;DHT22;62540;48.456;-4.456;2022-09-24T08:27:23;19.11;64.45
74178;DHT22;62540;48.456;-4.456;2022-09-24T08:29:50;18.84;64.88
74178;DHT22;62540;48.456;-4.456;2022-09-24T08:32:16;18.64;65.38
74178;DHT22;62540;48.456;-4.456;2022-09-24T08:34:42;18.87;65.67
74178;DHT22;62540;48.456;-4.456;2022-09-24T08:37:08;19.49;64.81
74178;DHT22;62540;48.456;-4.456;2022-09-24T08:39:33;20.01;63.32
74178;DHT22;62540;48.456;-4.456;2022-09-24T08:44:38;20.81;61.63
74178;DHT22;62540;48.456;-4.456;2022-09-24T08:47:43;21.26;60.61
74178;DHT22;62540;48.456;-4.456;2022-09-24T08:50:21;21.01;60.31
74178;DHT22;62540;48.456;-4.456;2022-09-24T08:53:44;20.83;59.26
74178;DHT22;62540;48.456;-4.456;2022-09-24T08:55:54;20.46;60.45
74178;DHT22;62540;48.456;-4.456;2022-09-24T08:58:47;20.41;60.70
74178;DHT22;62540;48.456;-4.456;2022-09-24T09:09:14;20.80;59.42
74178;DHT22;62540;48.456;-4.456;2022-09-24T09:11:47;20.59;59.57
74178;DHT22;62540;48.456;-4.456;2022-09-24T09:14:22;20.42;60.03
74178;DHT22;62540;48.456;-4.456;2022-09-24T09:16:55;20.38;60.42
74178;DHT22;62540;48.456;-4.456;2022-09-24T09:19:27;20.10;60.84
74178;DHT22;62540;48.456;-4.456;2022-09-24T09:22:02;19.85;61.56
74178;DHT22;62540;48.456;-4.456;2022-09-24T09:24:48;19.74;62.14
74178;DHT22;62540;48.456;-4.456;2022-09-24T09:27:16;19.71;62.25
74178;DHT22;62540;48.456;-4.456;2022-09-24T09:29:50;20.02;61.84
74178;DHT22;62540;48.456;-4.456;2022-09-24T09:35:40;20.32;61.46
74178;DHT22;62540;48.456;-4.456;2022-09-24T09:38:10;20.14;61.36
74178;DHT22;62540;48.456;-4.456;2022-09-24T09:40:56;20.22;61.39
74178;DHT22;62540;48.456;-4.456;2022-09-24T09:43:25;20.25;61.02
74178;DHT22;62540;48.456;-4.456;2022-09-24T09:48:25;20.57;60.86
74178;DHT22;62540;48.456;-4.456;2022-09-24T09:50:58;20.46;60.38
74178;DHT22;62540;48.456;-4.456;2022-09-24T09:53:26;20.56;60.13
74178;DHT22;62540;48.456;-4.456;2022-09-24T09:55:57;21.01;59.74
74178;DHT22;62540;48.456;-4.456;2022-09-24T09:58:26;21.66;59.24
74178;DHT22;62540;48.456;-4.456;2022-09-24T10:01:05;22.39;57.74
74178;DHT22;62540;48.456;-4.456;2022-09-24T10:03:45;22.85;55.35
74178;DHT22;62540;48.456;-4.456;2022-09-24T10:06:13;22.95;55.41
74178;DHT22;62540;48.456;-4.456;2022-09-24T10:08:46;22.76;53.97
74178;DHT22;62540;48.456;-4.456;2022-09-24T10:11:14;22.87;54.06
74178;DHT22;62540;48.456;-4.456;2022-09-24T10:13:40;22.98;53.75
74178;DHT22;62540;48.456;-4.456;2022-09-24T10:16:08;23.22;53.12
74178;DHT22;62540;48.456;-4.456;2022-09-24T10:18:45;23.43;51.33
74178;DHT22;62540;48.456;-4.456;2022-09-24T10:21:23;23.57;52.12
74178;DHT22;62540;48.456;-4.456;2022-09-24T10:23:50;23.85;51.02
74178;DHT22;62540;48.456;-4.456;2022-09-24T10:26:16;24.17;51.47
74178;DHT22;62540;48.456;-4.456;2022-09-24T10:28:47;24.25;51.51
74178;DHT22;62540;48.456;-4.456;2022-09-24T10:31:35;24.00;50.20
74178;DHT22;62540;48.456;-4.456;2022-09-24T10:34:04;23.71;51.50
74178;DHT22;62540;48.456;-4.456;2022-09-24T10:36:49;23.57;51.88
74178;DHT22;62540;48.456;-4.456;2022-09-24T10:39:15;23.29;51.18
74178;DHT22;62540;48.456;-4.456;2022-09-24T10:41:49;22.94;51.63
74178;DHT22;62540;48.456;-4.456;2022-09-24T10:44:15;22.79;52.72
74178;DHT22;62540;48.456;-4.456;2022-09-24T10:55:41;22.58;53.31
74178;DHT22;62540;48.456;-4.456;2022-09-24T11:03:56;22.58;53.49
74178;DHT22;62540;48.456;-4.456;2022-09-24T11:15:28;22.81;52.16
74178;DHT22;62540;48.456;-4.456;2022-09-24T11:20:35;22.36;53.95
74178;DHT22;62540;48.456;-4.456;2022-09-24T11:23:23;22.30;53.92
74178;DHT22;62540;48.456;-4.456;2022-09-24T11:42:23;21.66;54.72
74178;DHT22;62540;48.456;-4.456;2022-09-24T11:48:09;22.13;52.18
74178;DHT22;62540;48.456;-4.456;2022-09-24T11:55:52;22.79;50.35
74178;DHT22;62540;48.456;-4.456;2022-09-24T12:00:53;23.36;50.57
74178;DHT22;62540;48.456;-4.456;2022-09-24T12:03:30;23.64;47.81
74178;DHT22;62540;48.456;-4.456;2022-09-24T12:06:06;23.82;46.16
74178;DHT22;62540;48.456;-4.456;2022-09-24T12:08:36;23.91;45.66
74178;DHT22;62540;48.456;-4.456;2022-09-24T12:13:40;23.94;45.05
74178;DHT22;62540;48.456;-4.456;2022-09-24T12:16:09;24.05;44.78
74178;DHT22;62540;48.456;-4.456;2022-09-24T12:18:50;23.90;45.44
74178;DHT22;62540;48.456;-4.456;2022-09-24T12:21:20;23.80;44.64
74178;DHT22;62540;48.456;-4.456;2022-09-24T12:23:48;23.84;45.01
74178;DHT22;62540;48.456;-4.456;2022-09-24T12:26:17;23.57;45.77
74178;DHT22;62540;48.456;-4.456;2022-09-24T12:32:03;23.36;46.23
74178;DHT22;62540;48.456;-4.456;2022-09-24T12:35:01;23.59;45.28
74178;DHT22;62540;48.456;-4.456;2022-09-24T12:37:36;23.77;45.02
74178;DHT22;62540;48.456;-4.456;2022-09-24T12:40:16;23.69;44.17
74178;DHT22;62540;48.456;-4.456;2022-09-24T12:42:48;23.53;45.11
74178;DHT22;62540;48.456;-4.456;2022-09-24T12:45:19;23.69;46.06
74178;DHT22;62540;48.456;-4.456;2022-09-24T12:47:52;23.61;46.30
74178;DHT22;62540;48.456;-4.456;2022-09-24T12:50:28;23.47;47.59
74178;DHT22;62540;48.456;-4.456;2022-09-24T12:52:55;23.16;47.47
74178;DHT22;62540;48.456;-4.456;2022-09-24T12:55:23;22.79;47.24
74178;DHT22;62540;48.456;-4.456;2022-09-24T12:58:24;22.63;47.09
74178;DHT22;62540;48.456;-4.456;2022-09-24T13:00:41;22.75;47.99
74178;DHT22;62540;48.456;-4.456;2022-09-24T13:03:31;22.94;49.01
74178;DHT22;62540;48.456;-4.456;2022-09-24T13:06:00;23.05;48.42
74178;DHT22;62540;48.456;-4.456;2022-09-24T13:08:35;22.92;48.37
74178;DHT22;62540;48.456;-4.456;2022-09-24T13:11:04;22.68;49.00
74178;DHT22;62540;48.456;-4.456;2022-09-24T13:13:34;22.43;49.03
74178;DHT22;62540;48.456;-4.456;2022-09-24T13:16:18;22.12;49.76
74178;DHT22;62540;48.456;-4.456;2022-09-24T13:18:58;21.83;50.32
74178;DHT22;62540;48.456;-4.456;2022-09-24T13:21:27;21.62;50.36
74178;DHT22;62540;48.456;-4.456;2022-09-24T13:23:53;21.31;51.39
74178;DHT22;62540;48.456;-4.456;2022-09-24T13:31:26;21.06;53.33
74178;DHT22;62540;48.456;-4.456;2022-09-24T13:36:40;21.15;52.54
74178;DHT22;62540;48.456;-4.456;2022-09-24T13:39:14;21.31;52.99
74178;DHT22;62540;48.456;-4.456;2022-09-24T13:45:00;21.63;52.11
74178;DHT22;62540;48.456;-4.456;2022-09-24T13:47:31;21.59;51.92
74178;DHT22;62540;48.456;-4.456;2022-09-24T13:50:31;21.55;51.44
74178;DHT22;62540;48.456;-4.456;2022-09-24T13:53:04;21.57;51.86
74178;DHT22;62540;48.456;-4.456;2022-09-24T13:55:38;21.52;52.44
74178;DHT22;62540;48.456;-4.456;2022-09-24T13:58:04;21.49;49.76
74178;DHT22;62540;48.456;-4.456;2022-09-24T14:00:30;21.41;51.58
74178;DHT22;62540;48.456;-4.456;2022-09-24T14:03:00;21.48;51.78
74178;DHT22;62540;48.456;-4.456;2022-09-24T14:05:29;21.54;51.25
74178;DHT22;62540;48.456;-4.456;2022-09-24T14:08:03;21.44;50.47
74178;DHT22;62540;48.456;-4.456;2022-09-24T14:10:30;21.35;51.37
74178;DHT22;62540;48.456;-4.456;2022-09-24T14:18:16;21.18;51.26
74178;DHT22;62540;48.456;-4.456;2022-09-24T14:20:42;21.01;50.59
74178;DHT22;62540;48.456;-4.456;2022-09-24T14:23:15;20.90;50.86
74178;DHT22;62540;48.456;-4.456;2022-09-24T14:25:42;20.83;51.81
74178;DHT22;62540;48.456;-4.456;2022-09-24T14:28:10;20.80;51.86
74178;DHT22;62540;48.456;-4.456;2022-09-24T14:30:47;20.81;51.58
74178;DHT22;62540;48.456;-4.456;2022-09-24T14:33:16;20.81;51.30
74178;DHT22;62540;48.456;-4.456;2022-09-24T14:35:48;20.87;51.58
74178;DHT22;62540;48.456;-4.456;2022-09-24T14:38:22;20.96;51.31
74178;DHT22;62540;48.456;-4.456;2022-09-24T14:41:24;20.86;50.17
74178;DHT22;62540;48.456;-4.456;2022-09-24T14:44:20;20.66;50.74
74178;DHT22;62540;48.456;-4.456;2022-09-24T14:46:50;20.49;52.35
74178;DHT22;62540;48.456;-4.456;2022-09-24T14:49:28;20.32;53.38
74178;DHT22;62540;48.456;-4.456;2022-09-24T14:51:59;20.24;53.18
74178;DHT22;62540;48.456;-4.456;2022-09-24T14:54:29;20.26;53.18
74178;DHT22;62540;48.456;-4.456;2022-09-24T14:57:10;20.24;53.06
74178;DHT22;62540;48.456;-4.456;2022-09-24T14:59:37;20.10;53.92
74178;DHT22;62540;48.456;-4.456;2022-09-24T15:02:15;20.04;54.35
74178;DHT22;62540;48.456;-4.456;2022-09-24T15:04:47;20.11;53.99
74178;DHT22;62540;48.456;-4.456;2022-09-24T15:07:18;20.07;54.65
74178;DHT22;62540;48.456;-4.456;2022-09-24T15:09:50;20.08;54.14
74178;DHT22;62540;48.456;-4.456;2022-09-24T15:12:19;20.20;54.29
74178;DHT22;62540;48.456;-4.456;2022-09-24T15:15:37;20.26;54.16
74178;DHT22;62540;48.456;-4.456;2022-09-24T15:17:45;20.38;54.14
74178;DHT22;62540;48.456;-4.456;2022-09-24T15:20:11;20.35;53.22
74178;DHT22;62540;48.456;-4.456;2022-09-24T15:22:36;20.25;53.07
74178;DHT22;62540;48.456;-4.456;2022-09-24T15:25:03;20.11;52.81
74178;DHT22;62540;48.456;-4.456;2022-09-24T15:27:29;20.04;53.41
74178;DHT22;62540;48.456;-4.456;2022-09-24T15:29:56;20.07;53.30
74178;DHT22;62540;48.456;-4.456;2022-09-24T15:32:25;20.02;54.15
74178;DHT22;62540;48.456;-4.456;2022-09-24T15:34:51;20.05;54.88
74178;DHT22;62540;48.456;-4.456;2022-09-24T15:37:19;20.07;54.52
74178;DHT22;62540;48.456;-4.456;2022-09-24T15:39:46;19.97;54.04
74178;DHT22;62540;48.456;-4.456;2022-09-24T15:42:18;19.90;53.67
74178;DHT22;62540;48.456;-4.456;2022-09-24T15:44:45;19.71;53.72
74178;DHT22;62540;48.456;-4.456;2022-09-24T15:47:12;19.54;54.57
74178;DHT22;62540;48.456;-4.456;2022-09-24T15:49:38;19.36;54.08
74178;DHT22;62540;48.456;-4.456;2022-09-24T15:52:16;19.27;54.64
74178;DHT22;62540;48.456;-4.456;2022-09-24T15:54:50;19.23;54.65
74178;DHT22;62540;48.456;-4.456;2022-09-24T15:57:15;19.12;54.97
74178;DHT22;62540;48.456;-4.456;2022-09-24T15:59:41;19.01;55.73
74178;DHT22;62540;48.456;-4.456;2022-09-24T16:02:15;18.98;55.71
74178;DHT22;62540;48.456;-4.456;2022-09-24T16:04:41;18.92;55.52
74178;DHT22;62540;48.456;-4.456;2022-09-24T16:07:06;18.85;55.84
74178;DHT22;62540;48.456;-4.456;2022-09-24T16:09:32;18.74;55.71
74178;DHT22;62540;48.456;-4.456;2022-09-24T16:11:57;18.68;55.71
74178;DHT22;62540;48.456;-4.456;2022-09-24T16:14:22;18.54;55.83
74178;DHT22;62540;48.456;-4.456;2022-09-24T16:16:48;18.50;55.67
74178;DHT22;62540;48.456;-4.456;2022-09-24T16:19:13;18.37;56.13
74178;DHT22;62540;48.456;-4.456;2022-09-24T16:21:39;18.34;55.96
74178;DHT22;62540;48.456;-4.456;2022-09-24T16:24:04;18.27;56.63
74178;DHT22;62540;48.456;-4.456;2022-09-24T16:26:29;18.30;57.65
74178;DHT22;62540;48.456;-4.456;2022-09-24T16:28:56;18.29;57.64
74178;DHT22;62540;48.456;-4.456;2022-09-24T16:31:21;18.32;57.18
74178;DHT22;62540;48.456;-4.456;2022-09-24T16:33:47;18.25;57.38
74178;DHT22;62540;48.456;-4.456;2022-09-24T16:36:13;18.17;56.94
74178;DHT22;62540;48.456;-4.456;2022-09-24T16:38:38;18.13;57.02
74178;DHT22;62540;48.456;-4.456;2022-09-24T16:41:05;18.06;57.17
74178;DHT22;62540;48.456;-4.456;2022-09-24T16:43:31;17.99;58.48
74178;DHT22;62540;48.456;-4.456;2022-09-24T16:46:00;17.96;58.93
74178;DHT22;62540;48.456;-4.456;2022-09-24T16:48:28;17.96;59.12
74178;DHT22;62540;48.456;-4.456;2022-09-24T16:50:53;17.89;59.57
74178;DHT22;62540;48.456;-4.456;2022-09-24T16:53:19;17.85;59.30
74178;DHT22;62540;48.456;-4.456;2022-09-24T16:55:44;17.77;58.88
74178;DHT22;62540;48.456;-4.456;2022-09-24T16:58:10;17.74;59.17
74178;DHT22;62540;48.456;-4.456;2022-09-24T17:00:35;17.74;59.57
74178;DHT22;62540;48.456;-4.456;2022-09-24T17:03:08;17.68;59.47
74178;DHT22;62540;48.456;-4.456;2022-09-24T17:05:36;17.62;59.90
74178;DHT22;62540;48.456;-4.456;2022-09-24T17:08:04;17.61;59.81
74178;DHT22;62540;48.456;-4.456;2022-09-24T17:10:30;17.62;60.25
74178;DHT22;62540;48.456;-4.456;2022-09-24T17:12:55;17.57;60.19
74178;DHT22;62540;48.456;-4.456;2022-09-24T17:15:21;17.51;61.06
74178;DHT22;62540;48.456;-4.456;2022-09-24T17:17:47;17.42;61.01
74178;DHT22;62540;48.456;-4.456;2022-09-24T17:20:14;17.37;61.32
74178;DHT22;62540;48.456;-4.456;2022-09-24T17:22:39;17.32;61.71
74178;DHT22;62540;48.456;-4.456;2022-09-24T17:25:07;17.27;61.89
74178;DHT22;62540;48.456;-4.456;2022-09-24T17:27:32;17.24;61.82